createdAt,value
2019-05-07T00:00:59.064Z,9.37
2019-05-07T00:03:25.584Z,7.47
2019-05-07T00:05:53.994Z,9.43
2019-05-07T00:08:22.931Z,6.73
2019-05-07T00:10:49.587Z,6.63
2019-05-07T00:13:16.070Z,7.37
2019-05-07T00:15:42.632Z,9.67
2019-05-07T00:18:09.306Z,9.27
2019-05-07T00:20:35.846Z,6.37
2019-05-07T00:23:03.054Z,6.83
2019-05-07T00:25:29.929Z,9.77
2019-05-07T00:27:56.714Z,9.67
2019-05-07T00:30:23.511Z,7.90
2019-05-07T00:32:50.019Z,8.37
2019-05-07T00:35:22.460Z,11.07
2019-05-07T00:37:54.599Z,12.00
2019-05-07T00:40:43.378Z,12.10
2019-05-07T00:43:18.614Z,10.77
2019-05-07T00:45:57.425Z,10.43
2019-05-07T00:48:25.331Z,10.53
2019-05-07T00:50:56.431Z,9.93
2019-05-07T00:53:23.805Z,13.03
2019-05-07T00:55:52.569Z,8.00
2019-05-07T00:58:19.041Z,12.73
2019-05-07T01:00:46.866Z,8.73
2019-05-07T01:03:13.616Z,11.90
2019-05-07T01:05:40.440Z,12.93
2019-05-07T01:08:07.012Z,10.37
2019-05-07T01:10:34.674Z,11.90
2019-05-07T01:13:02.718Z,10.50
2019-05-07T01:15:32.143Z,9.13
2019-05-07T01:17:58.096Z,10.23
2019-05-07T01:20:25.740Z,9.40
2019-05-07T01:22:54.439Z,9.83
2019-05-07T01:25:22.091Z,8.60
2019-05-07T01:27:48.705Z,8.30
2019-05-07T01:30:15.277Z,7.07
2019-05-07T01:32:53.102Z,10.10
2019-05-07T01:35:24.822Z,9.03
2019-05-07T01:37:52.405Z,9.13
2019-05-07T01:40:19.241Z,9.73
2019-05-07T01:42:45.791Z,9.17
2019-05-07T01:45:13.835Z,9.90
2019-05-07T01:47:42.420Z,13.03
2019-05-07T01:50:08.842Z,12.57
2019-05-07T01:52:35.409Z,10.50
2019-05-07T01:55:03.171Z,12.33
2019-05-07T01:57:29.978Z,12.17
2019-05-07T01:59:56.446Z,12.10
2019-05-07T02:02:34.104Z,11.43
2019-05-07T02:05:26.759Z,8.77
2019-05-07T02:07:57.005Z,10.80
2019-05-07T02:10:31.951Z,9.00
2019-05-07T02:12:58.418Z,8.23
2019-05-07T02:15:24.927Z,13.10
2019-05-07T02:17:52.586Z,10.03
2019-05-07T02:20:19.381Z,11.50
2019-05-07T02:22:46.986Z,10.53
2019-05-07T02:25:13.796Z,12.20
2019-05-07T02:27:42.047Z,11.17
2019-05-07T02:30:09.020Z,12.83
2019-05-07T02:32:35.796Z,10.60
2019-05-07T02:35:04.019Z,14.77
2019-05-07T02:37:56.861Z,12.40
2019-05-07T02:40:38.081Z,11.43
2019-05-07T02:43:05.989Z,12.00
2019-05-07T02:45:49.198Z,11.13
2019-05-07T02:48:18.698Z,12.53
2019-05-07T02:50:59.540Z,11.47
2019-05-07T02:53:35.268Z,11.83
2019-05-07T02:56:03.738Z,11.03
2019-05-07T02:58:33.063Z,12.43
2019-05-07T03:01:29.324Z,12.27
2019-05-07T03:03:55.866Z,12.73
2019-05-07T03:06:23.270Z,12.33
2019-05-07T03:08:53.234Z,13.93
2019-05-07T03:11:18.471Z,11.93
2019-05-07T03:13:45.215Z,14.40
2019-05-07T03:16:13.162Z,13.23
2019-05-07T03:18:39.955Z,13.90
2019-05-07T03:21:12.808Z,13.37
2019-05-07T03:23:47.523Z,14.50
2019-05-07T03:26:23.205Z,15.07
2019-05-07T03:28:53.591Z,14.73
2019-05-07T03:31:35.538Z,12.37
2019-05-07T03:34:07.294Z,11.43
2019-05-07T03:36:39.350Z,15.33
2019-05-07T03:39:06.135Z,14.47
2019-05-07T03:41:34.066Z,14.47
2019-05-07T03:44:03.675Z,13.03
2019-05-07T03:46:33.530Z,18.30
2019-05-07T03:48:59.223Z,14.27
2019-05-07T03:51:25.828Z,12.67
2019-05-07T03:53:53.656Z,17.23
2019-05-07T03:56:23.402Z,15.93
2019-05-07T03:58:48.841Z,13.43
2019-05-07T04:01:15.544Z,17.83
2019-05-07T04:04:13.290Z,17.13
2019-05-07T04:06:43.189Z,13.07
2019-05-07T04:09:08.586Z,14.67
2019-05-07T04:11:35.494Z,14.87
2019-05-07T04:14:02.808Z,13.73
2019-05-07T04:16:29.401Z,14.10
2019-05-07T04:18:56.016Z,16.47
2019-05-07T04:21:23.201Z,13.87
2019-05-07T04:23:54.417Z,14.23
2019-05-07T04:26:33.886Z,14.63
2019-05-07T04:29:05.795Z,14.07
2019-05-07T04:31:43.041Z,13.23
2019-05-07T04:34:16.475Z,14.70
2019-05-07T04:36:46.013Z,15.50
2019-05-07T04:39:13.446Z,20.03
2019-05-07T04:41:43.213Z,14.00
2019-05-07T04:44:09.034Z,14.67
2019-05-07T04:46:35.613Z,13.27
2019-05-07T04:49:03.648Z,15.33
2019-05-07T04:51:37.665Z,16.23
2019-05-07T04:54:04.297Z,18.53
2019-05-07T04:56:33.150Z,16.73
2019-05-07T04:58:59.773Z,15.43
2019-05-07T05:01:28.644Z,17.50
2019-05-07T05:03:55.320Z,19.00
2019-05-07T05:06:24.110Z,16.77
2019-05-07T05:08:55.688Z,17.53
2019-05-07T05:11:20.043Z,16.37
2019-05-07T05:13:46.967Z,15.97
2019-05-07T05:16:23.081Z,15.27
2019-05-07T05:18:51.712Z,19.93
2019-05-07T05:21:50.266Z,18.27
2019-05-07T05:24:24.769Z,16.30
2019-05-07T05:26:52.588Z,16.70
2019-05-07T05:29:19.234Z,16.37
2019-05-07T05:31:47.511Z,22.80
2019-05-07T05:34:14.441Z,18.43
2019-05-07T05:36:42.440Z,20.90
2019-05-07T05:39:09.537Z,17.37
2019-05-07T05:41:38.004Z,17.50
2019-05-07T05:44:12.903Z,24.37
2019-05-07T05:46:39.591Z,18.57
2019-05-07T05:49:06.393Z,22.40
2019-05-07T05:51:55.230Z,22.73
2019-05-07T05:54:42.620Z,23.47
2019-05-07T05:57:34.637Z,21.83
2019-05-07T06:00:21.920Z,19.73
2019-05-07T06:03:02.536Z,24.47
2019-05-07T06:05:59.081Z,22.10
2019-05-07T06:08:32.464Z,21.53
2019-05-07T06:11:05.857Z,19.83
2019-05-07T06:13:55.382Z,20.77
2019-05-07T06:16:25.465Z,17.87
2019-05-07T06:19:05.829Z,18.60
2019-05-07T06:22:07.073Z,19.50
2019-05-07T06:24:47.268Z,20.53
2019-05-07T06:27:14.008Z,21.97
2019-05-07T06:29:42.617Z,19.93
2019-05-07T06:32:12.136Z,22.67
2019-05-07T06:34:41.654Z,20.47
2019-05-07T06:37:07.555Z,19.50
2019-05-07T06:39:42.131Z,28.30
2019-05-07T06:42:26.844Z,21.87
2019-05-07T06:45:03.127Z,19.63
2019-05-07T06:47:31.897Z,19.00
2019-05-07T06:49:59.827Z,20.70
2019-05-07T06:52:26.783Z,20.97
2019-05-07T06:54:53.785Z,17.70
2019-05-07T06:57:22.279Z,20.00
2019-05-07T06:59:53.196Z,22.83
2019-05-07T07:02:25.320Z,18.33
2019-05-07T07:04:56.563Z,19.03
2019-05-07T07:07:34.734Z,17.60
2019-05-07T07:10:12.753Z,18.17
2019-05-07T07:12:49.020Z,19.27
2019-05-07T07:15:15.947Z,20.20
2019-05-07T07:17:43.079Z,20.00
2019-05-07T07:20:12.717Z,16.77
2019-05-07T07:22:42.438Z,17.07
2019-05-07T07:25:09.096Z,18.03
2019-05-07T07:27:48.562Z,18.47
2019-05-07T07:30:36.937Z,15.90
2019-05-07T07:33:05.485Z,18.67
2019-05-07T07:35:32.415Z,14.63
2019-05-07T07:38:02.446Z,18.00
2019-05-07T07:40:42.188Z,15.53
2019-05-07T07:43:08.904Z,13.00
2019-05-07T07:45:47.158Z,12.57
2019-05-07T07:48:28.144Z,13.70
2019-05-07T07:51:03.590Z,13.33
2019-05-07T07:53:38.140Z,14.03
2019-05-07T07:56:23.180Z,15.33
2019-05-07T07:58:57.337Z,18.07
2019-05-07T08:01:33.010Z,15.87
2019-05-07T08:03:59.871Z,17.50
2019-05-07T08:06:28.664Z,18.90
2019-05-07T08:08:55.291Z,21.07
2019-05-07T08:11:22.088Z,15.93
2019-05-07T08:13:48.981Z,18.47
2019-05-07T08:16:15.738Z,18.63
2019-05-07T08:18:43.570Z,19.40
2019-05-07T08:21:12.025Z,19.60
2019-05-07T08:23:38.890Z,21.70
2019-05-07T08:26:05.578Z,19.80
2019-05-07T08:28:32.265Z,20.40
2019-05-07T08:31:14.268Z,16.47
2019-05-07T08:33:51.721Z,18.90
2019-05-07T08:36:18.276Z,18.30
2019-05-07T08:38:52.761Z,17.13
2019-05-07T08:41:22.340Z,19.70
2019-05-07T08:43:51.656Z,18.03
2019-05-07T08:46:29.611Z,17.30
2019-05-07T08:48:56.638Z,17.80
2019-05-07T08:51:23.307Z,19.03
2019-05-07T08:54:04.165Z,16.33
2019-05-07T08:56:31.869Z,13.37
2019-05-07T08:59:01.981Z,13.13
2019-05-07T09:01:28.551Z,14.33
2019-05-07T09:03:55.091Z,16.03
2019-05-07T09:06:32.590Z,12.50
2019-05-07T09:08:59.356Z,12.27
2019-05-07T09:11:26.306Z,12.37
2019-05-07T09:13:52.960Z,12.73
2019-05-07T09:16:19.608Z,11.93
2019-05-07T09:18:46.421Z,11.13
2019-05-07T09:21:13.238Z,8.40
2019-05-07T09:23:42.202Z,9.73
2019-05-07T09:26:10.383Z,8.87
2019-05-07T09:29:02.631Z,9.83
2019-05-07T09:31:56.060Z,10.87
2019-05-07T09:34:24.106Z,12.30
2019-05-07T09:36:52.664Z,9.63
2019-05-07T09:39:22.124Z,8.87
2019-05-07T09:41:48.980Z,12.33
2019-05-07T09:44:15.814Z,8.50
2019-05-07T09:46:46.642Z,8.23
2019-05-07T09:49:13.248Z,6.37
2019-05-07T09:51:42.704Z,7.40
2019-05-07T09:54:09.586Z,12.03
2019-05-07T09:56:42.242Z,10.47
2019-05-07T09:59:09.173Z,7.10
2019-05-07T10:01:36.241Z,6.33
2019-05-07T10:04:03.250Z,7.37
2019-05-07T10:06:32.000Z,7.60
2019-05-07T10:08:58.941Z,9.27
2019-05-07T10:11:32.929Z,8.33
2019-05-07T10:14:06.582Z,9.57
2019-05-07T10:16:52.436Z,6.53
2019-05-07T10:19:19.225Z,7.97
2019-05-07T10:21:46.210Z,7.50
2019-05-07T10:24:13.136Z,6.23
2019-05-07T10:26:40.230Z,6.20
2019-05-07T10:29:07.055Z,6.83
2019-05-07T10:31:35.780Z,5.90
2019-05-07T10:34:03.183Z,7.77
2019-05-07T10:36:32.028Z,9.87
2019-05-07T10:38:58.984Z,5.60
2019-05-07T10:41:25.681Z,6.90
2019-05-07T10:43:52.516Z,6.53
2019-05-07T10:46:29.265Z,6.20
2019-05-07T10:49:09.695Z,7.03
2019-05-07T10:51:36.392Z,7.03
2019-05-07T10:54:03.520Z,7.13
2019-05-07T10:56:32.622Z,4.73
2019-05-07T10:59:18.187Z,6.07
2019-05-07T11:01:51.997Z,5.20
2019-05-07T11:04:19.094Z,5.43
2019-05-07T11:06:45.909Z,4.30
2019-05-07T11:09:12.939Z,6.63
2019-05-07T11:11:39.699Z,6.60
2019-05-07T11:14:06.511Z,5.00
2019-05-07T11:16:44.532Z,5.23
2019-05-07T11:19:12.790Z,5.67
2019-05-07T11:21:41.768Z,5.30
2019-05-07T11:24:08.344Z,5.93
2019-05-07T11:26:36.551Z,6.07
2019-05-07T11:29:06.767Z,5.20
2019-05-07T11:31:34.863Z,4.43
2019-05-07T11:34:02.809Z,5.33
2019-05-07T11:36:32.057Z,4.77
2019-05-07T11:38:59.385Z,4.63
2019-05-07T11:41:38.987Z,5.33
2019-05-07T11:44:12.287Z,5.00
2019-05-07T11:46:57.660Z,4.20
2019-05-07T11:49:32.605Z,5.17
2019-05-07T11:52:15.012Z,7.80
2019-05-07T11:54:42.161Z,6.97
2019-05-07T11:57:08.765Z,8.10
2019-05-07T11:59:35.388Z,5.03
2019-05-07T12:02:04.921Z,5.20
2019-05-07T12:04:32.159Z,5.23
2019-05-07T12:07:02.560Z,4.40
2019-05-07T12:09:29.093Z,6.83
2019-05-07T12:11:55.867Z,6.33
2019-05-07T12:14:31.313Z,5.13
2019-05-07T12:16:51.834Z,4.70
2019-05-07T12:19:18.751Z,3.87
2019-05-07T12:21:45.747Z,4.63
2019-05-07T12:24:15.999Z,3.93
2019-05-07T12:26:43.146Z,4.77
2019-05-07T12:29:11.801Z,3.60
2019-05-07T12:31:57.837Z,4.27
2019-05-07T12:34:46.338Z,4.90
2019-05-07T12:37:12.948Z,5.07
2019-05-07T12:39:39.610Z,3.67
2019-05-07T12:42:06.301Z,4.50
2019-05-07T12:44:33.214Z,3.67
2019-05-07T12:47:01.706Z,4.13
2019-05-07T12:49:28.520Z,4.67
2019-05-07T12:52:02.284Z,5.13
2019-05-07T12:55:00.421Z,6.50
2019-05-07T12:57:29.575Z,3.40
2019-05-07T12:59:58.810Z,3.37
2019-05-07T13:02:40.084Z,5.40
2019-05-07T13:05:03.491Z,4.77
2019-05-07T13:07:50.871Z,3.67
2019-05-07T13:10:18.576Z,3.97
2019-05-07T13:12:45.328Z,4.60
2019-05-07T13:15:23.871Z,5.47
2019-05-07T13:17:41.694Z,5.20
2019-05-07T13:20:08.774Z,6.47
2019-05-07T13:22:36.646Z,4.67
2019-05-07T13:25:03.796Z,4.37
2019-05-07T13:27:31.992Z,4.30
2019-05-07T13:30:03.419Z,6.90
2019-05-07T13:32:32.004Z,8.57
2019-05-07T13:34:59.195Z,10.67
2019-05-07T13:37:28.175Z,6.27
2019-05-07T13:40:02.816Z,6.40
2019-05-07T13:42:45.295Z,5.73
2019-05-07T13:45:27.999Z,4.63
2019-05-07T13:48:02.730Z,5.53
2019-05-07T13:50:29.972Z,5.40
2019-05-07T13:52:56.788Z,4.93
2019-05-07T13:55:23.574Z,3.90
2019-05-07T13:57:52.271Z,3.67
2019-05-07T14:00:28.394Z,4.97
2019-05-07T14:02:55.161Z,5.27
2019-05-07T14:05:22.982Z,4.53
2019-05-07T14:07:49.718Z,3.50
2019-05-07T14:10:19.759Z,4.33
2019-05-07T14:12:47.101Z,4.80
2019-05-07T14:15:16.374Z,3.90
2019-05-07T14:17:45.051Z,4.07
2019-05-07T14:20:13.126Z,5.00
2019-05-07T14:22:39.880Z,4.73
2019-05-07T14:25:08.411Z,5.37
2019-05-07T14:27:38.656Z,5.67
2019-05-07T14:30:05.638Z,5.63
2019-05-07T14:32:47.338Z,5.33
2019-05-07T14:35:36.431Z,3.87
2019-05-07T14:38:07.154Z,4.23
2019-05-07T14:40:33.847Z,6.53
2019-05-07T14:43:08.393Z,4.93
2019-05-07T14:45:35.211Z,4.23
2019-05-07T14:48:02.945Z,5.13
2019-05-07T14:50:30.454Z,4.87
2019-05-07T14:52:57.217Z,4.40
2019-05-07T14:55:23.958Z,4.93
2019-05-07T14:57:52.418Z,4.93
2019-05-07T15:00:19.283Z,5.50
2019-05-07T15:02:45.952Z,9.33
2019-05-07T15:05:12.805Z,5.40
2019-05-07T15:07:39.603Z,5.63
2019-05-07T15:10:07.396Z,5.50
2019-05-07T15:12:34.126Z,6.17
2019-05-07T15:15:02.173Z,6.17
2019-05-07T15:17:38.417Z,5.17
2019-05-07T15:20:05.998Z,5.63
2019-05-07T15:22:49.470Z,5.00
2019-05-07T15:25:14.157Z,4.43
2019-05-07T15:27:43.611Z,4.90
2019-05-07T15:30:13.962Z,7.03
2019-05-07T15:32:42.820Z,7.97
2019-05-07T15:35:09.990Z,5.83
2019-05-07T15:37:37.612Z,5.33
2019-05-07T15:40:06.465Z,5.37
2019-05-07T15:42:33.073Z,4.67
2019-05-07T15:45:02.118Z,4.70
2019-05-07T15:47:35.723Z,4.57
2019-05-07T15:50:04.140Z,6.53
2019-05-07T15:52:57.988Z,5.00
2019-05-07T15:55:17.864Z,3.83
2019-05-07T15:57:44.532Z,5.80
2019-05-07T16:00:14.560Z,6.67
2019-05-07T16:02:46.485Z,6.43
2019-05-07T16:05:16.935Z,5.13
2019-05-07T16:07:48.957Z,6.97
2019-05-07T16:10:23.353Z,6.07
2019-05-07T16:12:53.462Z,4.60
2019-05-07T16:15:22.101Z,7.33
2019-05-07T16:17:55.816Z,6.67
2019-05-07T16:20:22.987Z,5.77
2019-05-07T16:22:55.107Z,5.47
2019-05-07T16:25:23.742Z,6.10
2019-05-07T16:27:52.623Z,7.07
2019-05-07T16:30:19.182Z,5.53
2019-05-07T16:32:45.917Z,6.97
2019-05-07T16:35:18.559Z,7.30
2019-05-07T16:37:47.357Z,7.30
2019-05-07T16:40:23.214Z,4.50
2019-05-07T16:43:06.446Z,6.83
2019-05-07T16:45:35.945Z,6.60
2019-05-07T16:48:04.105Z,9.80
2019-05-07T16:50:32.828Z,7.00
2019-05-07T16:53:05.168Z,5.97
2019-05-07T16:55:36.852Z,5.47
2019-05-07T16:58:12.534Z,5.53
2019-05-07T17:00:43.879Z,4.53
2019-05-07T17:03:15.844Z,9.27
2019-05-07T17:05:42.867Z,5.07
2019-05-07T17:08:27.809Z,6.87
2019-05-07T17:10:54.512Z,5.33
2019-05-07T17:13:21.427Z,6.57
2019-05-07T17:15:54.951Z,6.10
2019-05-07T17:18:22.463Z,4.57
2019-05-07T17:20:52.318Z,5.33
2019-05-07T17:23:25.159Z,5.60
2019-05-07T17:25:53.701Z,7.30
2019-05-07T17:28:22.696Z,5.47
2019-05-07T17:30:48.924Z,4.70
2019-05-07T17:33:15.597Z,5.10
2019-05-07T17:35:45.876Z,6.23
2019-05-07T17:38:12.858Z,6.80
2019-05-07T17:40:39.798Z,7.27
2019-05-07T17:43:06.638Z,4.77
2019-05-07T17:45:33.533Z,7.37
2019-05-07T17:48:03.119Z,5.37
2019-05-07T17:50:37.650Z,5.37
2019-05-07T17:53:05.556Z,5.63
2019-05-07T17:55:33.326Z,6.63
2019-05-07T17:58:01.998Z,5.27
2019-05-07T18:00:29.972Z,6.23
2019-05-07T18:03:29.418Z,4.37
2019-05-07T18:05:56.264Z,10.53
2019-05-07T18:08:23.232Z,6.43
2019-05-07T18:10:49.971Z,6.73
2019-05-07T18:13:16.614Z,9.63
2019-05-07T18:15:46.170Z,7.23
2019-05-07T18:18:16.932Z,5.40
2019-05-07T18:20:43.542Z,9.73
2019-05-07T18:23:14.886Z,6.23
2019-05-07T18:25:38.814Z,6.93
2019-05-07T18:28:08.868Z,10.20
2019-05-07T18:30:36.574Z,8.93
2019-05-07T18:33:22.092Z,9.13
2019-05-07T18:35:52.405Z,7.27
2019-05-07T18:38:19.282Z,8.00
2019-05-07T18:40:46.087Z,9.63
2019-05-07T18:43:12.696Z,6.83
2019-05-07T18:45:39.461Z,6.23
2019-05-07T18:48:06.668Z,7.67
2019-05-07T18:50:33.676Z,8.23
2019-05-07T18:53:00.222Z,7.40
2019-05-07T18:55:26.928Z,11.97
2019-05-07T18:57:53.551Z,6.53
2019-05-07T19:00:28.687Z,3.87
2019-05-07T19:02:55.311Z,6.47
2019-05-07T19:05:22.278Z,5.93
2019-05-07T19:08:02.347Z,4.57
2019-05-07T19:10:18.115Z,6.30
2019-05-07T19:12:44.887Z,5.60
2019-05-07T19:15:12.749Z,5.70
2019-05-07T19:17:39.556Z,8.13
2019-05-07T19:20:06.168Z,5.73
2019-05-07T19:22:33.157Z,8.00
2019-05-07T19:25:00.007Z,5.27
2019-05-07T19:27:32.675Z,6.20
2019-05-07T19:29:59.771Z,5.23
2019-05-07T19:32:26.724Z,4.33
2019-05-07T19:34:53.617Z,6.37
2019-05-07T19:37:22.265Z,5.67
2019-05-07T19:39:48.700Z,7.43
2019-05-07T19:42:15.278Z,6.90
2019-05-07T19:44:42.296Z,6.00
2019-05-07T19:47:09.026Z,5.67
2019-05-07T19:49:35.658Z,8.47
2019-05-07T19:52:02.609Z,6.20
2019-05-07T19:54:31.824Z,10.07
2019-05-07T19:56:59.467Z,5.60
2019-05-07T19:59:26.099Z,5.97
2019-05-07T20:01:56.752Z,7.67
2019-05-07T20:04:23.481Z,6.10
2019-05-07T20:06:52.291Z,8.50
2019-05-07T20:09:23.272Z,7.43
2019-05-07T20:11:52.146Z,7.30
2019-05-07T20:14:18.829Z,7.90
2019-05-07T20:16:45.635Z,6.30
2019-05-07T20:19:12.397Z,7.20
2019-05-07T20:21:41.776Z,7.40
2019-05-07T20:24:12.267Z,7.43
2019-05-07T20:26:43.169Z,6.57
2019-05-07T20:29:12.445Z,9.03
2019-05-07T20:31:42.252Z,8.70
2019-05-07T20:34:13.141Z,8.20
2019-05-07T20:36:47.950Z,8.53
2019-05-07T20:39:14.908Z,12.93
2019-05-07T20:41:42.933Z,9.27
2019-05-07T20:44:12.866Z,8.53
2019-05-07T20:46:42.313Z,7.77
2019-05-07T20:49:13.072Z,8.07
2019-05-07T20:51:41.897Z,8.93
2019-05-07T20:54:39.310Z,8.73
2019-05-07T20:57:32.968Z,9.07
2019-05-07T21:00:03.705Z,10.10
2019-05-07T21:02:44.859Z,7.60
2019-05-07T21:05:03.003Z,10.33
2019-05-07T21:07:43.456Z,10.40
2019-05-07T21:10:02.175Z,9.23
2019-05-07T21:12:36.035Z,9.00
2019-05-07T21:15:06.457Z,9.90
2019-05-07T21:17:53.321Z,8.03
2019-05-07T21:20:23.183Z,9.00
2019-05-07T21:23:12.060Z,9.97
2019-05-07T21:25:45.835Z,10.00
2019-05-07T21:28:13.022Z,7.77
2019-05-07T21:31:02.905Z,9.17
2019-05-07T21:33:40.242Z,9.33
2019-05-07T21:36:13.874Z,8.40
2019-05-07T21:38:42.589Z,9.47
2019-05-07T21:41:13.468Z,8.77
2019-05-07T21:44:04.146Z,8.40
2019-05-07T21:46:33.275Z,12.33
2019-05-07T21:49:03.137Z,9.17
2019-05-07T21:51:35.904Z,13.00
2019-05-07T21:54:31.292Z,10.40
2019-05-07T21:57:19.375Z,9.37
2019-05-07T21:59:52.080Z,10.97
2019-05-07T22:02:32.727Z,9.27
2019-05-07T22:04:54.867Z,9.50
2019-05-07T22:07:22.911Z,10.77
2019-05-07T22:09:52.360Z,9.83
2019-05-07T22:12:20.103Z,10.50
2019-05-07T22:14:49.460Z,7.90
2019-05-07T22:17:29.593Z,8.70
2019-05-07T22:20:14.257Z,9.43
2019-05-07T22:22:43.018Z,10.37
2019-05-07T22:25:13.106Z,11.70
2019-05-07T22:27:42.997Z,13.87
2019-05-07T22:30:34.192Z,8.70
2019-05-07T22:33:12.900Z,10.57
2019-05-07T22:35:42.927Z,8.77
2019-05-07T22:38:13.825Z,10.67
2019-05-07T22:40:43.384Z,10.50
2019-05-07T22:43:10.107Z,9.30
2019-05-07T22:45:39.342Z,12.27
2019-05-07T22:48:12.233Z,10.20
2019-05-07T22:50:42.357Z,8.07
2019-05-07T22:53:22.043Z,10.87
2019-05-07T22:55:52.608Z,10.30
2019-05-07T22:58:25.060Z,11.03
2019-05-07T23:00:58.628Z,11.70
2019-05-07T23:03:25.131Z,13.07
2019-05-07T23:05:56.403Z,9.97
2019-05-07T23:08:32.866Z,10.93
2019-05-07T23:11:02.932Z,8.73
2019-05-07T23:13:31.874Z,11.57
2019-05-07T23:16:02.724Z,9.63
2019-05-07T23:18:32.519Z,11.27
2019-05-07T23:21:02.697Z,10.03
2019-05-07T23:23:32.572Z,11.50
2019-05-07T23:26:14.768Z,11.10
2019-05-07T23:28:41.930Z,10.10
2019-05-07T23:31:14.566Z,9.07
2019-05-07T23:33:48.626Z,13.53
2019-05-07T23:36:15.002Z,11.80
2019-05-07T23:38:42.638Z,9.37
2019-05-07T23:41:28.384Z,11.50
2019-05-07T23:44:14.006Z,11.40
2019-05-07T23:46:44.759Z,14.33
2019-05-07T23:49:14.343Z,11.50
2019-05-07T23:51:43.679Z,10.53
2019-05-07T23:54:12.119Z,14.83
2019-05-07T23:56:42.683Z,10.13
2019-05-07T23:59:14.458Z,9.60
